Quick Links (Output Below):   Max & Min Temps   /   Climate Reports   /   Zone Forecasts
River Forecasts   /   Forestry Forecasts   /   Aviation Forecasts   /   Radars   /   Features

Terminal Aerodrome Forecast (Highfill)

Pick a Site:
Arkadelphia | El Dorado | Fayetteville | Fort Smith | Harrison | Highfill | Hot Springs | Jonesboro
Little Rock | Monticello | Mountain Home | Pine Bluff | Texarkana
 Forecast 

KXNA 241720Z 2418/2518 20014G25KT P6SM BKN050
      TEMPO 2420/2422 4SM -TSRA BR BKN025CB
     FM242200 27013G25KT P6SM BKN050
     FM250200 29005KT P6SM SKC=


 Latest METARs (Observations) 
How to Decode METARs
17Z KXNA 241653Z 20019G27KT 10SM SCT041 SCT080 20/15 A2972 RMK AO2 PK
         WND 20027/1648 RAE1555B20E53 SLP055 P0000 T02000150
         
16Z KXNA 241553Z 20010KT 10SM -RA FEW023 BKN100 BKN120 17/14 A2975 RMK
         AO2 PK WND 15034/1455 WSHFT 1440 LTG DSNT SW TSB36E51RAB41
         SLP065 P0000 T01720139
         
15Z KXNA 241453Z 15028G35KT 7SM FEW070 BKN095 OVC110 16/13 A2967 RMK
         AO2 PK WND 15035/1451 WSHFT 1436 LTG DSNT W RAB24E51 PRESFR
         SLP038 P0003 60003 T01610133 58017
         
14Z KXNA 241353Z 19021G30KT 10SM FEW100 18/12 A2977 RMK AO2 PK WND
         18030/1353 LTG DSNT SW SLP068 T01830122
         
13Z KXNA 241253Z 18013KT 10SM BKN100 18/12 A2973 RMK AO2 WSHFT 1147
         RAB1159E11 SLP057 P0000 T01780117
         
12Z KXNA 241153Z 21012G19KT 10SM SCT110 18/11 A2972 RMK AO2 PK WND
         17029/1107 LTG DSNT N SLP053 T01780111 10183 20167 55016
         
11Z KXNA 241053Z 18021G27KT 10SM CLR 18/09 A2967 RMK AO2 PK WND
         16029/1027 SLP035 T01830094
         
10Z KXNA 240953Z AUTO 16019KT 10SM CLR 18/08 A2973 RMK AO2 PRESFR
         SLP055 T01780078
         
09Z KXNA 240853Z AUTO 17015KT 10SM CLR 18/08 A2977 RMK AO2 SLP068
         T01780083 58021
         
08Z KXNA 240753Z AUTO 18014KT 10SM CLR 18/08 A2980 RMK AO2 SLP077
         T01830083
         
***** Today's Observations (Above) *****


Back to Main Page
http://www.srh.noaa.gov/lzk/qfcst.php

USA.gov is the U.S. government's official web portal to all federal, state and local government web resources and services.